Time;durP1;ratioP1;P1;durP2;ratioP2;P2;SDS_P1;SDS_P2;PMS_P1;PMS_P2;Temp;Humidity;BMP_temperature;BMP_pressure;BME280_temperature;BME280_humidity;BME280_pressure;Samples;Min_cycle;Max_cycle;Signal;HPM_P1;HPM_P2
2023/06/24 00:00:24;;;;;;;9.20;6.30;;;;;;;21.36;39.88;102033.69;5043569;28;20057;-79
2023/06/24 00:02:53;;;;;;;7.85;6.18;;;;;;;21.34;40.09;102033.03;5052736;28;20071;-79
2023/06/24 00:05:21;;;;;;;8.65;6.28;;;;;;;21.31;40.29;102028.66;5053966;28;20527;-80
2023/06/24 00:07:49;;;;;;;7.28;5.80;;;;;;;21.29;40.51;102036.31;5049164;28;20090;-80
2023/06/24 00:10:17;;;;;;;7.60;6.50;;;;;;;21.25;40.17;102028.47;5049334;28;20048;-80
2023/06/24 00:12:47;;;;;;;7.88;6.18;;;;;;;21.25;40.16;102032.13;5045692;28;20067;-81
2023/06/24 00:15:15;;;;;;;7.10;5.82;;;;;;;21.20;40.38;102037.34;5049913;28;20556;-81
2023/06/24 00:17:43;;;;;;;8.55;6.10;;;;;;;21.18;40.48;102035.81;5050835;28;20082;-80
2023/06/24 00:20:14;;;;;;;7.55;6.35;;;;;;;21.14;40.51;102024.13;5054515;28;20511;-80
2023/06/24 00:22:43;;;;;;;7.88;6.25;;;;;;;21.07;40.15;102025.88;5048221;28;20099;-80
2023/06/24 00:25:12;;;;;;;7.40;5.82;;;;;;;21.05;40.40;102023.28;5047326;28;20037;-80
2023/06/24 00:27:41;;;;;;;8.15;6.18;;;;;;;21.01;40.91;102024.69;5052378;28;20090;-80
2023/06/24 00:30:11;;;;;;;6.72;5.40;;;;;;;21.01;41.06;102019.13;5053571;28;20033;-80
2023/06/24 00:32:39;;;;;;;7.50;5.47;;;;;;;20.98;40.79;102026.94;5051360;28;20041;-80
2023/06/24 00:35:08;;;;;;;7.03;5.38;;;;;;;20.97;40.82;102023.28;5049780;28;20412;-80
2023/06/24 00:37:36;;;;;;;7.88;5.30;;;;;;;20.96;41.09;102020.66;5045953;28;20098;-80
2023/06/24 00:40:05;;;;;;;8.07;5.30;;;;;;;20.97;40.71;102025.19;5047884;28;20480;-81
2023/06/24 00:42:34;;;;;;;7.70;5.57;;;;;;;20.96;40.92;102026.22;5061687;28;20416;-80
2023/06/24 00:45:04;;;;;;;7.47;5.32;;;;;;;20.94;41.18;102022.78;5058354;28;20049;-80
2023/06/24 00:47:34;;;;;;;8.35;5.30;;;;;;;20.96;40.92;102031.81;5048749;28;20156;-79
2023/06/24 00:50:03;;;;;;;7.22;5.40;;;;;;;20.92;41.16;102027.66;5061806;28;20473;-80
2023/06/24 00:52:32;;;;;;;6.53;5.60;;;;;;;20.91;40.74;102025.91;5074991;28;20101;-80
2023/06/24 00:55:02;;;;;;;7.30;5.35;;;;;;;20.88;41.13;102018.75;5051726;28;20198;-80
2023/06/24 00:57:31;;;;;;;8.35;5.57;;;;;;;20.86;40.86;102020.84;5064120;28;20052;-79
2023/06/24 01:00:00;;;;;;;6.78;5.38;;;;;;;20.86;40.88;102023.63;5062242;28;20123;-80
2023/06/24 01:02:28;;;;;;;6.28;5.03;;;;;;;20.83;41.39;102028.69;5058758;28;20068;-80
2023/06/24 01:08:05;;;;;;;7.45;5.22;;;;;;;20.78;41.47;102032.84;5028187;28;20509;-84
2023/06/24 01:10:34;;;;;;;6.38;5.10;;;;;;;20.73;41.34;102024.16;5033710;28;20080;-85
2023/06/24 01:13:02;;;;;;;7.25;4.78;;;;;;;20.75;41.58;102030.44;5034512;28;20045;-85
2023/06/24 01:15:30;;;;;;;6.57;5.22;;;;;;;20.74;41.69;102023.13;5029555;28;20073;-85
2023/06/24 01:18:05;;;;;;;6.00;5.00;;;;;;;20.77;41.92;102024.69;5030648;28;20048;-85
2023/06/24 01:20:47;;;;;;;7.00;5.15;;;;;;;20.75;41.65;102022.09;5024511;28;20041;-85
2023/06/24 01:23:59;;;;;;;7.28;5.07;;;;;;;20.70;41.77;102023.63;5026402;28;20529;-84
2023/06/24 01:26:50;;;;;;;7.72;4.95;;;;;;;20.67;42.23;102019.28;5032166;28;20042;-85
2023/06/24 01:29:50;;;;;;;6.82;5.55;;;;;;;20.67;41.85;102012.84;5027047;28;20066;-84
2023/06/24 01:32:34;;;;;;;7.90;5.07;;;;;;;20.62;41.53;102018.91;5023643;28;20099;-85
2023/06/24 01:35:09;;;;;;;6.03;4.72;;;;;;;20.62;41.25;102023.63;5028306;28;20049;-85
2023/06/24 01:37:42;;;;;;;6.63;5.05;;;;;;;20.59;41.41;102019.28;5029980;28;20049;-84
2023/06/24 01:40:16;;;;;;;7.28;5.15;;;;;;;20.57;41.36;102012.97;5023151;28;20049;-85
2023/06/24 01:42:46;;;;;;;7.13;4.95;;;;;;;20.54;41.37;102018.88;5027838;28;20042;-84
2023/06/24 01:45:19;;;;;;;6.38;4.70;;;;;;;20.52;41.02;102017.34;5020702;28;20116;-85
2023/06/24 01:47:49;;;;;;;;;;;;;;;20.19;41.88;102011.72;5046358;28;20042;-85
2023/06/24 01:50:23;;;;;;;6.18;4.38;;;;;;;20.43;41.42;102008.13;5050303;28;19921;-82
2023/06/24 01:52:53;;;;;;;7.72;4.65;;;;;;;20.43;41.39;102008.13;5025482;28;20663;-85
2023/06/24 01:55:22;;;;;;;6.07;4.97;;;;;;;20.41;41.40;102007.41;5030848;28;20038;-85
2023/06/24 01:57:52;;;;;;;6.05;4.78;;;;;;;20.40;41.10;102009.31;5033614;28;20408;-85
2023/06/24 02:00:22;;;;;;;6.07;4.95;;;;;;;20.38;41.05;102016.06;5016481;28;20154;-84
2023/06/24 02:02:54;;;;;;;6.40;5.28;;;;;;;20.35;41.09;102011.75;5030169;28;20052;-82
2023/06/24 02:05:25;;;;;;;7.53;5.07;;;;;;;20.30;41.01;102000.25;5024793;28;20080;-85
2023/06/24 02:07:54;;;;;;;6.55;5.20;;;;;;;20.26;40.98;101996.09;5030484;28;20433;-83
2023/06/24 02:10:26;;;;;;;6.32;4.75;;;;;;;20.24;41.14;102000.06;5029908;28;20045;-83
2023/06/24 02:12:56;;;;;;;8.90;4.97;;;;;;;20.22;40.77;101994.69;5027888;28;20076;-83
2023/06/24 02:15:27;;;;;;;5.93;4.97;;;;;;;20.19;41.20;101996.94;5032935;28;20413;-83
2023/06/24 02:17:58;;;;;;;7.32;5.15;;;;;;;20.18;41.24;101998.84;5048144;28;20076;-83
2023/06/24 02:20:28;;;;;;;6.80;4.93;;;;;;;20.14;41.15;101997.44;5028427;28;20038;-83
2023/06/24 02:22:57;;;;;;;7.80;5.15;;;;;;;20.12;41.00;101995.88;5028812;28;20471;-83
2023/06/24 02:25:26;;;;;;;7.55;5.55;;;;;;;20.10;41.31;102000.75;5037899;28;20049;-83
2023/06/24 02:27:56;;;;;;;7.10;5.03;;;;;;;20.09;41.11;102001.78;5026610;28;20033;-83
2023/06/24 02:30:26;;;;;;;5.88;4.80;;;;;;;20.05;41.49;101990.13;5023969;28;20034;-83
2023/06/24 02:32:54;;;;;;;6.07;5.15;;;;;;;20.04;41.34;102001.44;5029250;28;20089;-83
2023/06/24 02:35:23;;;;;;;6.28;5.00;;;;;;;20.05;41.21;102003.13;5018801;28;20508;-84
2023/06/24 02:37:52;;;;;;;5.72;5.07;;;;;;;20.03;41.44;102008.88;5034049;28;20041;-83
2023/06/24 02:40:20;;;;;;;6.65;4.97;;;;;;;20.01;41.42;101997.94;5024574;28;20128;-83
2023/06/24 02:42:48;;;;;;;6.63;5.28;;;;;;;20.02;41.85;101991.34;5026512;28;20045;-83
2023/06/24 02:45:16;;;;;;;6.32;4.88;;;;;;;20.04;41.53;102002.25;5021264;28;20052;-83
2023/06/24 02:47:47;;;;;;;7.10;4.82;;;;;;;20.05;41.27;101998.44;5017616;28;20045;-83
2023/06/24 02:50:16;;;;;;;6.90;4.95;;;;;;;20.04;41.29;101990.31;5025685;28;20731;-83
2023/06/24 02:52:47;;;;;;;6.13;4.97;;;;;;;20.04;41.60;101996.72;5028155;28;20320;-83
2023/06/24 02:55:20;;;;;;;6.68;5.18;;;;;;;20.00;41.31;101995.31;5026251;28;20048;-83
2023/06/24 02:57:53;;;;;;;6.40;5.05;;;;;;;19.99;41.54;102007.47;5024503;28;20045;-83
2023/06/24 03:00:51;;;;;;;6.18;5.07;;;;;;;19.97;41.58;102009.53;5021619;28;20054;-81
2023/06/24 03:03:32;;;;;;;6.75;5.10;;;;;;;19.97;41.48;101999.28;5029353;28;20064;-82
2023/06/24 03:06:04;;;;;;;6.40;4.75;;;;;;;19.99;41.58;102007.47;5024643;28;20460;-82
2023/06/24 03:08:33;;;;;;;7.85;5.22;;;;;;;19.98;41.51;102014.06;5023191;28;20034;-82
2023/06/24 03:11:01;;;;;;;6.60;5.03;;;;;;;19.94;41.28;102016.31;5026347;28;20105;-82
2023/06/24 03:13:31;;;;;;;6.68;4.65;;;;;;;19.93;41.46;102008.16;5035426;28;20033;-82
2023/06/24 03:16:19;;;;;;;7.43;4.95;;;;;;;19.91;41.36;102018.56;5028392;28;20053;-82
2023/06/24 03:19:02;;;;;;;6.38;4.70;;;;;;;19.87;41.26;102014.34;5027362;28;20050;-81
2023/06/24 03:21:30;;;;;;;5.82;4.68;;;;;;;19.86;41.23;102002.38;5025220;28;20057;-81
2023/06/24 03:24:08;;;;;;;6.60;4.97;;;;;;;19.88;41.01;102007.72;5030510;28;20069;-82
2023/06/24 03:26:39;;;;;;;6.22;4.85;;;;;;;19.86;41.33;102016.25;5026677;28;20052;-82
2023/06/24 03:29:11;;;;;;;7.47;4.97;;;;;;;19.81;41.47;102015.00;5023659;28;20075;-81
2023/06/24 03:31:45;;;;;;;6.47;4.72;;;;;;;19.81;41.21;102023.34;5026283;28;20049;-82
2023/06/24 03:34:17;;;;;;;6.38;4.88;;;;;;;19.80;41.37;102014.13;5026541;28;20056;-82
2023/06/24 03:36:46;;;;;;;6.40;4.68;;;;;;;19.80;41.40;102016.91;5026538;28;20044;-82
2023/06/24 03:39:16;;;;;;;6.60;5.25;;;;;;;19.80;41.30;102014.13;5023900;28;20124;-82
2023/06/24 03:41:44;;;;;;;6.35;4.65;;;;;;;19.78;41.09;102018.13;5021620;28;20080;-82
2023/06/24 03:44:15;;;;;;;7.13;5.15;;;;;;;19.77;41.45;102019.16;5025063;28;20040;-82
2023/06/24 03:46:43;;;;;;;7.40;5.20;;;;;;;19.77;41.64;102024.72;5025419;28;20054;-82
2023/06/24 03:49:12;;;;;;;6.65;5.25;;;;;;;19.74;41.28;102031.47;5022888;28;20065;-81
2023/06/24 03:51:40;;;;;;;7.15;5.40;;;;;;;19.72;40.98;102036.31;5022630;28;20133;-82
2023/06/24 03:54:09;;;;;;;7.20;5.45;;;;;;;19.72;41.21;102041.00;5044617;28;20140;-81
2023/06/24 03:56:38;;;;;;;7.20;5.00;;;;;;;19.72;41.44;102043.78;5021294;28;20052;-81
2023/06/24 03:59:07;;;;;;;7.20;5.30;;;;;;;19.69;41.17;102036.66;5025314;28;20050;-82
2023/06/24 04:01:36;;;;;;;7.88;5.10;;;;;;;19.69;41.42;102044.13;5021314;28;20100;-82
2023/06/24 04:04:06;;;;;;;6.57;5.13;;;;;;;19.68;41.29;102037.69;5022345;28;20052;-82
2023/06/24 04:06:34;;;;;;;6.68;5.10;;;;;;;19.66;41.54;102039.75;5023409;28;20050;-81
2023/06/24 04:09:02;;;;;;;6.82;5.20;;;;;;;19.68;41.68;102050.72;5024983;28;20063;-82
2023/06/24 04:11:30;;;;;;;6.50;4.68;;;;;;;19.67;41.79;102047.06;5023677;28;20053;-82
2023/06/24 04:14:02;;;;;;;6.97;5.00;;;;;;;19.72;41.71;102047.41;5024116;28;20073;-81
2023/06/24 04:16:30;;;;;;;7.47;5.22;;;;;;;19.71;42.01;102050.41;5029210;28;20050;-81
2023/06/24 04:18:58;;;;;;;6.05;5.00;;;;;;;19.74;42.08;102047.25;5026413;28;20532;-81
2023/06/24 04:21:26;;;;;;;6.85;4.75;;;;;;;19.75;42.30;102049.00;5027267;28;20353;-81
2023/06/24 04:23:54;;;;;;;7.45;5.38;;;;;;;19.77;41.85;102053.38;5026642;28;20061;-82
2023/06/24 04:26:22;;;;;;;6.72;5.15;;;;;;;19.80;41.91;102049.38;5023064;28;20088;-82
2023/06/24 04:28:51;;;;;;;8.02;5.40;;;;;;;19.81;41.68;102051.13;5037854;28;20057;-82
2023/06/24 04:31:20;;;;;;;6.78;5.50;;;;;;;19.84;41.38;102050.78;5027977;28;20053;-82
2023/06/24 04:33:48;;;;;;;6.40;5.03;;;;;;;19.81;41.54;102056.66;5027217;28;20034;-82
2023/06/24 04:36:17;;;;;;;6.43;5.35;;;;;;;19.81;41.58;102054.75;5024052;28;20530;-82
2023/06/24 04:38:47;;;;;;;6.68;4.85;;;;;;;19.80;41.81;102049.38;5025840;28;20042;-81
2023/06/24 04:41:15;;;;;;;7.68;5.60;;;;;;;19.80;41.67;102061.34;5025552;28;20088;-81
2023/06/24 04:43:43;;;;;;;7.90;5.72;;;;;;;19.79;41.99;102061.53;5026039;28;20045;-81
2023/06/24 04:46:11;;;;;;;6.80;5.32;;;;;;;19.78;41.96;102059.81;5024258;28;20069;-81
2023/06/24 04:48:41;;;;;;;7.20;5.28;;;;;;;19.79;42.13;102061.53;5025059;28;20096;-82
2023/06/24 04:51:10;;;;;;;7.85;5.28;;;;;;;19.77;41.87;102064.47;5025078;28;20467;-81
2023/06/24 04:53:38;;;;;;;6.35;5.40;;;;;;;19.76;41.92;102059.97;5023719;28;20038;-81
2023/06/24 04:56:06;;;;;;;8.98;5.95;;;;;;;19.75;42.05;102061.00;5024148;28;20057;-81
2023/06/24 04:58:34;;;;;;;8.40;5.78;;;;;;;19.76;42.13;102053.53;5021701;28;20133;-81
2023/06/24 05:01:03;;;;;;;7.32;5.93;;;;;;;19.76;42.47;102059.97;5024100;28;20507;-81
2023/06/24 05:03:32;;;;;;;8.85;6.00;;;;;;;19.75;42.30;102052.66;5022200;28;20116;-81
2023/06/24 05:06:02;;;;;;;8.95;6.03;;;;;;;19.78;42.46;102055.13;5018924;28;20050;-81
2023/06/24 05:08:30;;;;;;;9.02;6.00;;;;;;;19.79;42.53;102051.28;5024008;28;20385;-81
2023/06/24 05:10:59;;;;;;;8.82;6.28;;;;;;;19.80;42.81;102046.59;5018892;28;20050;-81
2023/06/24 05:13:28;;;;;;;8.80;6.25;;;;;;;19.85;42.66;102052.53;5023409;28;20102;-81
2023/06/24 05:15:56;;;;;;;7.63;6.00;;;;;;;19.88;42.78;102049.41;5022760;28;20041;-81
2023/06/24 05:18:24;;;;;;;9.18;6.07;;;;;;;19.92;43.25;102045.31;5027073;28;20039;-81
2023/06/24 05:20:52;;;;;;;8.15;6.28;;;;;;;19.96;42.92;102047.56;5018235;28;20632;-81
2023/06/24 05:23:21;;;;;;;8.60;6.38;;;;;;;20.06;43.17;102049.34;5025628;28;20037;-81
2023/06/24 05:25:49;;;;;;;9.07;6.80;;;;;;;20.10;42.91;102056.31;5018803;28;20058;-81
2023/06/24 05:28:17;;;;;;;7.43;6.07;;;;;;;20.18;42.98;102051.66;5021449;28;20081;-81
2023/06/24 05:30:46;;;;;;;8.98;6.25;;;;;;;20.25;43.06;102049.94;5020670;28;20061;-82
2023/06/24 05:33:14;;;;;;;7.43;6.28;;;;;;;20.33;42.99;102061.09;5027106;28;20046;-81
2023/06/24 05:35:44;;;;;;;8.30;6.50;;;;;;;20.44;42.85;102053.47;5033481;28;20120;-81
2023/06/24 05:38:12;;;;;;;7.90;6.22;;;;;;;20.50;42.76;102056.44;5037793;28;20117;-82
2023/06/24 05:40:41;;;;;;;7.97;6.03;;;;;;;20.59;42.63;102049.88;5026196;28;20110;-82
2023/06/24 05:43:11;;;;;;;7.88;6.35;;;;;;;20.68;42.69;102059.09;5035726;28;20038;-82
2023/06/24 05:45:39;;;;;;;7.75;6.30;;;;;;;20.74;42.55;102055.63;5030540;28;20054;-82
2023/06/24 05:48:08;;;;;;;7.75;5.72;;;;;;;20.81;42.43;102058.59;5025417;28;20147;-82
2023/06/24 05:50:37;;;;;;;7.45;6.03;;;;;;;20.88;42.24;102063.28;5021094;28;20045;-83
2023/06/24 05:53:04;;;;;;;6.82;5.65;;;;;;;20.97;42.57;102064.16;5025441;28;20081;-82
2023/06/24 05:55:32;;;;;;;6.75;6.05;;;;;;;21.04;42.45;102052.16;5024401;28;20061;-82
2023/06/24 05:58:02;;;;;;;8.00;6.18;;;;;;;21.17;42.52;102061.91;5024417;28;20065;-81
2023/06/24 06:00:31;;;;;;;8.43;6.00;;;;;;;21.22;42.15;102060.31;5017033;28;20515;-82
2023/06/24 06:02:59;;;;;;;7.13;6.38;;;;;;;21.31;42.18;102066.78;5022056;28;20059;-82
2023/06/24 06:05:27;;;;;;;7.65;6.20;;;;;;;21.38;42.01;102063.13;5026855;28;20284;-82
2023/06/24 06:07:55;;;;;;;8.00;6.22;;;;;;;21.46;42.03;102067.81;5022782;28;20050;-82
2023/06/24 06:10:22;;;;;;;7.43;6.30;;;;;;;21.52;41.84;102070.75;5022459;28;20042;-82
2023/06/24 06:12:52;;;;;;;9.02;6.53;;;;;;;21.60;41.83;102067.09;5022869;28;20041;-82
2023/06/24 06:15:23;;;;;;;8.93;6.80;;;;;;;21.69;41.67;102077.16;5019984;28;20064;-82
2023/06/24 06:17:53;;;;;;;9.32;6.03;;;;;;;21.75;41.56;102079.25;5027799;28;20045;-82
2023/06/24 06:20:21;;;;;;;8.40;6.28;;;;;;;21.81;41.57;102077.66;5032955;28;20033;-82
2023/06/24 06:22:50;;;;;;;8.90;6.53;;;;;;;21.86;41.49;102076.03;5033603;28;20049;-84
2023/06/24 06:25:19;;;;;;;8.05;6.22;;;;;;;21.92;41.40;102074.50;5035297;28;20424;-82
2023/06/24 06:27:46;;;;;;;8.85;6.78;;;;;;;21.97;41.35;102082.31;5032038;28;20048;-82
2023/06/24 06:30:15;;;;;;;9.70;6.50;;;;;;;22.02;41.17;102080.72;5028804;28;20100;-83
2023/06/24 06:32:44;;;;;;;9.10;7.30;;;;;;;22.09;41.37;102083.69;5024933;28;20041;-82
2023/06/24 06:35:12;;;;;;;8.18;6.72;;;;;;;22.10;40.96;102077.91;5026715;28;20564;-82
2023/06/24 06:37:40;;;;;;;8.77;6.50;;;;;;;22.16;41.33;102084.69;5021508;28;20619;-81
2023/06/24 06:40:09;;;;;;;8.32;7.18;;;;;;;22.22;41.53;102086.75;5021322;28;20129;-81
2023/06/24 06:42:37;;;;;;;8.38;6.70;;;;;;;22.28;41.38;102094.38;5023201;28;20056;-81
2023/06/24 06:45:06;;;;;;;7.75;6.65;;;;;;;22.36;41.21;102093.47;5023453;28;20125;-80
2023/06/24 06:47:34;;;;;;;10.15;7.20;;;;;;;22.41;40.95;102085.44;5022792;28;20128;-80
2023/06/24 06:50:03;;;;;;;8.93;6.88;;;;;;;22.50;41.03;102092.72;5023446;28;20095;-81
2023/06/24 06:52:32;;;;;;;9.05;6.70;;;;;;;22.54;40.54;102102.47;5020569;28;20049;-81
2023/06/24 06:54:59;;;;;;;10.63;6.65;;;;;;;22.60;40.67;102098.94;5019148;28;20556;-81
2023/06/24 07:02:17;;;;;;;6.85;5.07;;;;;;;22.70;41.13;102093.13;5024686;28;20087;-82
2023/06/24 07:12:57;;;;;;;;;;;;;;;22.69;40.95;102096.97;5048465;23;20047;-80
2023/06/24 07:15:26;;;;;;;7.47;4.80;;;;;;;23.05;40.45;102100.03;5056752;28;20434;-80
2023/06/24 07:17:54;;;;;;;7.32;4.90;;;;;;;23.17;40.17;102104.13;5051449;28;20079;-80
2023/06/24 07:20:22;;;;;;;7.25;5.22;;;;;;;23.22;40.21;102104.44;5063595;28;20278;-83
2023/06/24 07:22:51;;;;;;;6.93;5.20;;;;;;;23.26;39.83;102098.28;5062664;28;20321;-80
2023/06/24 07:25:19;;;;;;;7.55;5.70;;;;;;;23.29;39.55;102097.06;5064278;28;20045;-80
2023/06/24 07:27:47;;;;;;;5.90;4.43;;;;;;;23.33;39.32;102107.66;5053062;28;20052;-80
2023/06/24 07:30:16;;;;;;;6.95;4.38;;;;;;;23.36;39.41;102104.47;5055603;28;20041;-78
2023/06/24 07:32:44;;;;;;;6.18;4.47;;;;;;;23.35;39.30;102105.53;5052111;28;20583;-79
2023/06/24 07:35:13;;;;;;;6.05;4.35;;;;;;;23.39;39.50;102108.84;5055611;28;20045;-80
2023/06/24 07:37:41;;;;;;;6.55;4.47;;;;;;;23.44;39.12;102102.66;5057367;28;20037;-79
2023/06/24 07:40:10;;;;;;;6.13;4.82;;;;;;;23.48;39.39;102104.91;5052848;28;20526;-79
2023/06/24 07:42:37;;;;;;;7.15;4.25;;;;;;;23.51;39.26;102101.72;5047316;28;20085;-79
2023/06/24 07:45:06;;;;;;;6.97;4.53;;;;;;;23.60;39.33;102108.09;5066104;28;20045;-80
2023/06/24 07:47:36;;;;;;;7.22;4.68;;;;;;;23.66;39.00;102105.41;5052950;28;20049;-80
2023/06/24 07:50:06;;;;;;;7.13;4.72;;;;;;;23.69;38.90;102106.94;5056124;28;20055;-80
2023/06/24 07:52:34;;;;;;;5.80;4.07;;;;;;;23.76;38.89;102110.75;5056517;28;20045;-78
2023/06/24 07:55:03;;;;;;;7.95;4.60;;;;;;;23.81;39.20;102110.19;5053687;28;20533;-78
2023/06/24 07:57:31;;;;;;;6.47;4.45;;;;;;;23.87;38.39;102104.69;5060016;28;20052;-78
2023/06/24 07:59:59;;;;;;;5.15;3.90;;;;;;;23.94;38.39;102101.97;5066325;28;20132;-80
2023/06/24 08:02:27;;;;;;;4.82;3.63;;;;;;;24.00;38.37;102104.88;5058471;28;20075;-79
2023/06/24 08:04:57;;;;;;;7.35;4.32;;;;;;;24.09;38.13;102105.63;5062282;28;20045;-80
2023/06/24 08:07:27;;;;;;;6.45;3.90;;;;;;;24.12;38.20;102103.34;5054196;28;20063;-81
2023/06/24 08:09:54;;;;;;;5.43;3.58;;;;;;;24.20;37.85;102104.28;5059696;28;20040;-81
2023/06/24 08:12:22;;;;;;;5.30;3.88;;;;;;;24.27;37.61;102103.31;5055040;28;20049;-81
2023/06/24 08:14:50;;;;;;;5.45;3.72;;;;;;;24.32;37.39;102100.78;5049709;28;20067;-81
2023/06/24 08:17:18;;;;;;;5.82;3.65;;;;;;;24.38;37.22;102102.84;5050320;28;20049;-80
2023/06/24 08:19:46;;;;;;;4.90;3.40;;;;;;;24.44;37.07;102104.00;5052677;28;20039;-80
2023/06/24 08:22:16;;;;;;;6.20;3.80;;;;;;;24.55;36.80;102108.22;5060930;28;20043;-80
2023/06/24 08:24:43;;;;;;;4.70;3.58;;;;;;;24.57;36.58;102103.31;5059644;28;20113;-81
2023/06/24 08:27:11;;;;;;;5.00;3.65;;;;;;;24.62;36.71;102101.63;5054179;28;20048;-80
2023/06/24 08:29:41;;;;;;;5.38;3.40;;;;;;;24.68;36.42;102098.03;5063617;28;20040;-83
2023/06/24 08:32:09;;;;;;;4.88;3.45;;;;;;;24.72;36.13;102098.53;5059127;28;20053;-81
2023/06/24 08:34:37;;;;;;;5.05;3.40;;;;;;;24.77;36.14;102088.47;5061394;28;20041;-82
2023/06/24 08:37:10;;;;;;;5.25;3.72;;;;;;;24.85;35.34;102088.31;5057321;28;20064;-85
2023/06/24 08:39:41;;;;;;;5.13;3.30;;;;;;;24.92;35.63;102095.91;5053218;28;20044;-83
2023/06/24 08:42:09;;;;;;;8.82;3.45;;;;;;;24.93;35.75;102089.25;5055517;28;20459;-82
2023/06/24 08:44:37;;;;;;;5.90;3.38;;;;;;;24.98;35.45;102084.81;5046165;28;20451;-82
2023/06/24 08:47:07;;;;;;;5.75;3.47;;;;;;;25.03;35.47;102090.69;5056416;28;20122;-83
2023/06/24 08:49:48;;;;;;;5.50;3.28;;;;;;;25.10;34.84;102085.16;5050958;28;20052;-83
2023/06/24 08:52:17;;;;;;;5.28;3.20;;;;;;;25.12;34.93;102083.91;5058491;28;20055;-83
2023/06/24 08:54:51;;;;;;;5.68;4.00;;;;;;;25.20;34.43;102080.09;5058524;28;20132;-81
2023/06/24 08:57:20;;;;;;;5.38;3.58;;;;;;;25.20;34.96;102078.16;5057866;28;20049;-83
2023/06/24 08:59:48;;;;;;;5.55;3.85;;;;;;;25.25;34.58;102078.41;5056511;28;20041;-83
2023/06/24 09:02:16;;;;;;;6.68;3.50;;;;;;;25.30;35.00;102083.41;5056378;28;20044;-83
2023/06/24 09:04:45;;;;;;;5.97;4.28;;;;;;;25.36;34.60;102076.13;5053074;28;20051;-81
2023/06/24 09:07:14;;;;;;;6.10;4.13;;;;;;;25.39;34.25;102079.38;5051630;28;20045;-83
2023/06/24 09:09:47;;;;;;;6.20;4.00;;;;;;;25.47;33.94;102082.00;5049370;28;20037;-83
2023/06/24 09:12:16;;;;;;;5.22;3.80;;;;;;;25.49;34.00;102079.88;5054851;28;20053;-82
2023/06/24 09:14:49;;;;;;;6.90;3.40;;;;;;;25.57;33.96;102084.50;5054442;28;20127;-82
2023/06/24 09:17:20;;;;;;;5.15;3.30;;;;;;;25.58;34.19;102083.44;5051046;28;20055;-83
2023/06/24 09:19:48;;;;;;;6.97;4.00;;;;;;;25.60;34.34;102079.38;5058306;28;20101;-84
2023/06/24 09:22:17;;;;;;;4.85;3.63;;;;;;;25.68;34.10;102072.72;5071907;28;20071;-83
2023/06/24 09:24:49;;;;;;;5.35;3.38;;;;;;;25.75;34.12;102073.63;5068737;28;20053;-83
2023/06/24 09:27:19;;;;;;;5.28;3.53;;;;;;;25.77;33.92;102065.88;5061092;28;20419;-83
2023/06/24 09:29:48;;;;;;;5.00;3.25;;;;;;;25.82;33.58;102063.31;5055506;28;20139;-82
2023/06/24 09:32:18;;;;;;;5.57;3.80;;;;;;;25.88;33.17;102059.72;5058762;28;20052;-84
2023/06/24 09:34:49;;;;;;;5.25;3.65;;;;;;;25.90;33.16;102059.47;5064051;28;20056;-82
2023/06/24 09:37:23;;;;;;;4.72;3.38;;;;;;;25.99;32.75;102067.53;5064712;28;20396;-85
2023/06/24 09:39:53;;;;;;;4.45;3.15;;;;;;;26.03;32.70;102059.56;5064682;28;20052;-81
2023/06/24 09:42:23;;;;;;;4.15;3.00;;;;;;;26.06;32.91;102053.53;5055402;28;20508;-83
2023/06/24 09:44:56;;;;;;;5.97;3.47;;;;;;;26.12;32.38;102052.75;5076612;28;20033;-80
2023/06/24 09:47:25;;;;;;;4.82;3.28;;;;;;;26.15;32.65;102049.50;5071464;28;20048;-79
2023/06/24 09:49:54;;;;;;;3.78;2.83;;;;;;;26.21;32.00;102048.69;5081043;28;20033;-81
2023/06/24 09:52:22;;;;;;;5.72;2.72;;;;;;;26.26;31.98;102046.09;5063727;28;20067;-81
2023/06/24 09:54:55;;;;;;;4.95;2.90;;;;;;;26.30;32.16;102043.72;5055467;28;20099;-80
2023/06/24 09:57:29;;;;;;;6.20;3.00;;;;;;;26.35;31.75;102038.38;5062156;28;20037;-80
2023/06/24 09:59:59;;;;;;;6.57;2.97;;;;;;;26.37;31.84;102045.50;5058039;28;20504;-82
2023/06/24 10:02:30;;;;;;;4.88;3.22;;;;;;;26.41;31.62;102039.44;5053044;28;20140;-82
2023/06/24 10:05:00;;;;;;;4.22;2.95;;;;;;;26.43;31.34;102028.88;5066214;28;20044;-84
2023/06/24 10:07:29;;;;;;;4.43;3.13;;;;;;;26.46;31.18;102031.28;5059675;28;20055;-81
2023/06/24 10:09:59;;;;;;;5.20;3.10;;;;;;;26.49;30.93;102025.22;5058706;28;20041;-82
2023/06/24 10:12:28;;;;;;;4.40;2.85;;;;;;;26.48;30.88;102021.53;5061017;28;20076;-82
2023/06/24 10:14:56;;;;;;;4.75;3.00;;;;;;;26.50;30.58;102026.97;5056951;28;20044;-81
2023/06/24 10:17:24;;;;;;;4.90;3.05;;;;;;;26.51;30.83;102023.94;5065232;28;20041;-82
2023/06/24 10:19:54;;;;;;;4.82;2.95;;;;;;;26.55;30.61;102021.56;5070543;28;20037;-77
2023/06/24 10:22:23;;;;;;;4.40;3.00;;;;;;;26.58;30.83;102012.72;5060862;28;20122;-78
2023/06/24 10:25:27;;;;;;;7.13;3.00;;;;;;;26.57;30.34;102005.38;5055850;28;20452;-85
2023/06/24 11:13:16;;;;;;;3.38;2.20;;;;;;;27.59;28.04;101971.25;4972680;22;20119;-70
2023/06/24 11:15:44;;;;;;;4.28;2.28;;;;;;;27.66;27.67;101970.13;5053664;28;20045;-71
2023/06/24 11:18:12;;;;;;;4.00;2.50;;;;;;;27.73;27.22;101959.75;5052378;28;20041;-68
2023/06/24 11:20:40;;;;;;;3.58;2.58;;;;;;;27.80;27.04;101959.72;5051707;28;20044;-70
2023/06/24 11:23:10;;;;;;;4.38;2.28;;;;;;;27.85;26.49;101955.19;5055188;28;20115;-67
2023/06/24 11:25:47;;;;;;;3.30;2.20;;;;;;;27.94;25.11;101963.38;5055332;28;20040;-70
2023/06/24 11:28:18;;;;;;;4.43;2.55;;;;;;;27.97;25.40;101962.91;5057588;28;20049;-67
2023/06/24 11:30:50;;;;;;;4.05;2.67;;;;;;;27.98;25.53;101957.06;5057356;28;20052;-69
2023/06/24 11:33:28;;;;;;;4.03;2.70;;;;;;;28.05;25.24;101955.06;5050625;28;20044;-68
2023/06/24 11:35:56;;;;;;;5.22;3.53;;;;;;;28.06;26.15;101951.16;5050429;28;20053;-68
2023/06/24 11:38:24;;;;;;;4.57;3.45;;;;;;;28.10;26.23;101952.47;5057484;28;20037;-68
2023/06/24 11:40:52;;;;;;;4.72;2.95;;;;;;;28.14;25.41;101950.91;5060037;28;20045;-68
2023/06/24 11:43:21;;;;;;;4.07;2.90;;;;;;;28.20;25.21;101949.13;5059851;28;20038;-69
2023/06/24 11:45:49;;;;;;;4.55;2.80;;;;;;;28.22;25.59;101950.69;5051868;28;20090;-69
2023/06/24 11:48:17;;;;;;;4.13;2.80;;;;;;;28.24;25.30;101945.69;5058385;28;20021;-69
2023/06/24 11:50:45;;;;;;;4.18;2.75;;;;;;;28.29;25.63;101944.13;5036036;28;20049;-69
2023/06/24 11:53:13;;;;;;;4.00;2.40;;;;;;;28.32;25.85;101949.31;5059556;28;20045;-69
2023/06/24 11:55:41;;;;;;;4.30;2.60;;;;;;;28.35;26.40;101946.94;5044420;28;20123;-69
2023/06/24 11:58:09;;;;;;;4.97;2.70;;;;;;;28.40;25.78;101947.09;5053182;28;20524;-69
2023/06/24 12:00:40;;;;;;;4.30;3.17;;;;;;;28.46;25.37;101940.56;5051893;28;20048;-69
2023/06/24 12:03:10;;;;;;;5.37;3.07;;;;;;;28.47;25.38;101936.66;5056271;28;20527;-69
2023/06/24 12:05:44;;;;;;;5.70;3.17;;;;;;;28.52;24.97;101938.81;5056700;28;20071;-69
2023/06/24 12:08:15;;;;;;;4.80;2.90;;;;;;;28.53;25.29;101932.91;5052454;28;20049;-69
2023/06/24 12:10:44;;;;;;;4.75;2.67;;;;;;;28.57;24.27;101933.34;5055595;28;20419;-69
2023/06/24 12:13:13;;;;;;;3.83;2.60;;;;;;;28.56;23.96;101935.28;5053760;28;20053;-69
2023/06/24 12:15:42;;;;;;;4.22;2.58;;;;;;;28.59;23.77;101925.53;5051390;28;20044;-69
2023/06/24 12:18:10;;;;;;;3.70;2.47;;;;;;;28.57;24.31;101925.75;5042854;28;20575;-69
2023/06/24 12:20:38;;;;;;;4.75;2.53;;;;;;;28.59;24.19;101928.34;5042832;28;20040;-69
2023/06/24 12:23:07;;;;;;;3.35;2.40;;;;;;;28.60;24.42;101924.44;5052086;28;20508;-69
2023/06/24 12:25:35;;;;;;;3.83;2.50;;;;;;;28.61;24.22;101920.50;5049705;28;20126;-70
2023/06/24 12:28:03;;;;;;;4.35;2.60;;;;;;;28.64;24.58;101917.25;5045933;28;20045;-69
2023/06/24 12:30:30;;;;;;;3.85;2.33;;;;;;;28.66;24.82;101914.19;5048755;28;20056;-69
2023/06/24 12:33:00;;;;;;;4.10;2.35;;;;;;;28.70;24.30;101912.63;5044918;28;20073;-69
2023/06/24 12:35:28;;;;;;;4.43;2.78;;;;;;;28.70;24.09;101913.50;5055135;28;20051;-69
2023/06/24 12:37:56;;;;;;;3.70;2.40;;;;;;;28.72;23.53;101908.50;5051556;28;20923;-69
2023/06/24 12:40:24;;;;;;;3.65;2.50;;;;;;;28.75;24.23;101902.44;5048690;28;20048;-70